Time;durP1;ratioP1;P1;durP2;ratioP2;P2;SDS_P1;SDS_P2;PMS_P1;PMS_P2;Temp;Humidity;BMP_temperature;BMP_pressure;BME280_temperature;BME280_humidity;BME280_pressure;Samples;Min_cycle;Max_cycle;Signal;HPM_P1;HPM_P2
2021/09/24 08:42:05;;;;;;;10.40;5.85;;;;;;;19.80;55.56;100116.03;1074298;54;20057;31
2021/09/24 10:41:41;;;;;;;5.43;2.95;;;;;;;22.13;48.57;100060.66;1091747;46;20018;-83
2021/09/24 11:16:05;;;;;;;5.30;2.35;;;;;;;21.71;49.19;100024.97;1087237;54;20030;-80
2021/09/24 11:17:11;;;;;;;4.82;2.53;;;;;;;21.66;49.33;100031.88;1088024;54;20035;-79
2021/09/24 11:18:59;;;;;;;5.07;2.40;;;;;;;21.59;49.47;100028.38;1088086;54;20045;-81
2021/09/24 11:23:46;;;;;;;4.40;2.40;;;;;;;21.80;49.55;100023.66;1087752;54;20026;-83
2021/09/24 11:25:12;;;;;;;5.10;2.58;;;;;;;21.85;49.15;100023.81;1088121;54;20026;-80
2021/09/24 11:26:19;;;;;;;5.88;2.60;;;;;;;21.95;48.88;100021.44;1088546;54;20038;-80
2021/09/24 11:27:32;;;;;;;4.32;2.50;;;;;;;21.83;49.21;100025.91;1088469;54;20062;-81
2021/09/24 11:28:40;;;;;;;5.00;2.72;;;;;;;21.69;49.62;100021.63;1088402;54;20030;-83
2021/09/24 11:30:05;;;;;;;3.97;2.30;;;;;;;22.05;48.94;100017.38;1088424;54;20255;-81
2021/09/24 11:31:19;;;;;;;4.03;2.25;;;;;;;22.24;48.59;100027.28;1088315;54;20065;-80
2021/09/24 11:32:31;;;;;;;4.13;2.25;;;;;;;22.24;48.37;100015.56;1088257;54;20038;-81
2021/09/24 11:33:45;;;;;;;5.28;2.83;;;;;;;22.15;48.34;100012.28;1092427;46;20144;-83
2021/09/24 11:35:13;;;;;;;4.38;2.17;;;;;;;21.99;48.39;100015.56;1088329;54;20058;-79
2021/09/24 11:36:41;;;;;;;4.18;1.77;;;;;;;22.26;47.91;100022.44;1093061;46;20038;-81
2021/09/24 11:37:46;;;;;;;3.95;1.90;;;;;;;22.34;47.29;100010.44;1088319;54;20037;-82
2021/09/24 11:39:04;;;;;;;3.60;1.90;;;;;;;22.46;46.99;100007.84;1094954;46;20019;-81
2021/09/24 11:48:56;;;;;;;4.90;2.90;;;;;;;22.29;47.37;100004.81;1087453;54;20040;-81
2021/09/24 11:50:01;;;;;;;3.58;2.22;;;;;;;22.36;47.35;99999.34;1088244;54;20035;-80
2021/09/24 11:51:17;;;;;;;4.18;1.98;;;;;;;22.52;46.96;99998.78;1088081;54;20069;-82
2021/09/24 11:52:19;;;;;;;4.65;2.10;;;;;;;22.64;46.56;99992.59;1088372;54;20018;-80
2021/09/24 11:53:30;;;;;;;3.80;2.10;;;;;;;22.60;46.53;99997.66;1088222;54;20034;-81
2021/09/24 11:54:34;;;;;;;4.57;2.28;;;;;;;22.29;47.15;100000.22;1097920;39;20641;-81
2021/09/24 11:55:43;;;;;;;5.72;2.05;;;;;;;22.28;47.18;99998.56;1088365;54;20046;-80
2021/09/24 11:56:45;;;;;;;5.22;1.90;;;;;;;22.28;47.69;99993.13;1088343;54;20014;-81
2021/09/24 11:58:03;;;;;;;4.72;2.30;;;;;;;22.48;47.02;99986.69;1088158;54;20062;-81
2021/09/24 11:59:11;;;;;;;5.13;2.35;;;;;;;22.42;47.33;99993.00;1088448;54;20034;-82
2021/09/24 12:00:13;;;;;;;5.47;2.08;;;;;;;22.31;46.86;99999.16;1088119;54;20041;-80
2021/09/24 12:01:24;;;;;;;6.70;2.22;;;;;;;22.45;46.51;99989.84;1088607;46;20081;-80
2021/09/24 12:02:25;;;;;;;4.47;2.30;;;;;;;22.36;46.60;99989.25;1088230;54;20042;-80
2021/09/24 12:03:34;;;;;;;4.88;2.40;;;;;;;22.38;46.56;99991.78;1090539;39;20409;-82
2021/09/24 12:04:56;;;;;;;5.15;2.28;;;;;;;22.36;46.33;99986.53;1088233;54;20045;-81
2021/09/24 12:06:04;;;;;;;4.65;2.20;;;;;;;22.51;46.39;99977.22;1088161;54;20057;-80
2021/09/24 12:07:11;;;;;;;3.97;2.30;;;;;;;22.50;46.30;99989.16;1088266;54;20050;-82
2021/09/24 12:08:17;;;;;;;5.82;2.45;;;;;;;22.54;46.18;99983.03;1088183;54;20082;-81
2021/09/24 12:09:22;;;;;;;5.30;2.15;;;;;;;22.25;46.22;99988.13;1088372;54;20041;-81
2021/09/24 12:10:27;;;;;;;4.30;2.17;;;;;;;22.16;45.76;99977.72;1088145;54;20042;-81
2021/09/24 12:11:42;;;;;;;3.67;1.80;;;;;;;22.50;45.19;99978.28;1088261;54;20026;-83
2021/09/24 12:12:45;;;;;;;4.45;2.50;;;;;;;22.34;45.68;99976.94;1088043;54;20038;-81
2021/09/24 12:13:51;;;;;;;4.32;2.17;;;;;;;22.67;45.14;99976.63;1088114;54;20049;-80
2021/09/24 12:14:57;;;;;;;4.35;2.17;;;;;;;22.64;45.01;99973.53;1089518;46;20034;-81
2021/09/24 12:16:03;;;;;;;4.32;2.15;;;;;;;22.78;44.67;99980.47;1088226;54;20035;-80
2021/09/24 12:17:10;;;;;;;6.10;2.05;;;;;;;22.93;44.21;99968.38;1089935;46;20038;-82
2021/09/24 12:18:12;;;;;;;4.00;1.77;;;;;;;23.06;44.07;99976.38;1087983;54;20039;-80
2021/09/24 12:19:18;;;;;;;3.30;1.75;;;;;;;22.93;44.15;99977.38;1088379;39;20428;-80
2021/09/24 12:20:26;;;;;;;4.47;2.40;;;;;;;23.02;44.09;99967.81;1087825;54;20038;-81
2021/09/24 12:21:34;;;;;;;3.55;1.80;;;;;;;23.09;44.15;99964.19;1087912;54;20094;-80
2021/09/24 12:22:36;;;;;;;3.45;1.77;;;;;;;23.16;44.03;99964.94;1088067;54;20053;-80
2021/09/24 12:23:40;;;;;;;3.45;1.70;;;;;;;23.18;44.04;99960.94;1088336;39;20631;-81
2021/09/24 12:24:53;;;;;;;4.07;2.10;;;;;;;22.92;44.27;99969.44;1088256;54;20038;-82
2021/09/24 12:25:59;;;;;;;4.60;2.47;;;;;;;22.80;44.24;99959.28;1088289;54;20034;-82
2021/09/24 12:27:08;;;;;;;3.95;2.35;;;;;;;22.91;44.19;99971.31;1088401;54;20026;-80
2021/09/24 12:28:11;;;;;;;5.45;2.40;;;;;;;22.81;44.41;99969.13;1088408;54;20023;-82
2021/09/24 12:29:19;;;;;;;4.20;2.25;;;;;;;22.67;44.89;99954.00;1088226;54;20034;-81
2021/09/24 12:30:21;;;;;;;4.53;2.45;;;;;;;22.63;45.14;99955.50;1088185;54;20034;-82
2021/09/24 12:31:38;;;;;;;7.00;2.47;;;;;;;22.61;45.14;99957.63;1093326;39;20519;-83
2021/09/24 12:32:42;;;;;;;4.53;2.22;;;;;;;22.81;45.06;99969.13;1088260;54;20037;-81
2021/09/24 12:33:51;;;;;;;5.05;2.60;;;;;;;22.65;44.78;99961.56;1087971;54;20058;-82
2021/09/24 12:36:10;;;;;;;4.65;2.22;;;;;;;22.96;44.92;99954.25;1087463;54;20034;-80
2021/09/24 12:37:16;;;;;;;4.93;2.50;;;;;;;22.78;44.62;99971.47;1088087;54;20034;-81
2021/09/24 12:38:24;;;;;;;3.78;2.20;;;;;;;22.69;44.49;99954.59;1088297;54;20019;-81
2021/09/24 12:39:44;;;;;;;5.40;2.22;;;;;;;22.65;44.14;99964.28;1088218;54;20049;-80
2021/09/24 12:40:45;;;;;;;6.63;2.38;;;;;;;22.60;44.83;99964.97;1088376;54;20022;-81
2021/09/24 12:43:37;;;;;;;4.00;2.60;;;;;;;22.63;44.72;99959.06;1088269;54;19995;-80
2021/09/24 12:44:58;;;;;;;4.50;2.50;;;;;;;22.60;44.21;99954.06;1088218;54;20041;-81
2021/09/24 12:45:59;;;;;;;5.60;2.65;;;;;;;22.57;44.55;99952.66;1089331;46;20030;-81
2021/09/24 12:47:22;;;;;;;4.18;2.33;;;;;;;22.77;44.37;99959.72;1088292;54;20034;-82
2021/09/24 12:48:26;;;;;;;3.88;2.10;;;;;;;22.92;44.09;99950.34;1088286;54;20078;-80
2021/09/24 12:49:32;;;;;;;3.90;2.10;;;;;;;23.11;43.99;99948.41;1088302;54;20022;-81
2021/09/24 12:50:34;;;;;;;4.30;2.20;;;;;;;23.14;44.00;99951.53;1088327;54;20034;-80
2021/09/24 12:53:28;;;;;;;4.93;2.33;;;;;;;22.95;43.73;99947.19;1088123;54;20024;-80
2021/09/24 12:54:32;;;;;;;4.25;2.60;;;;;;;23.14;43.17;99939.78;1088334;54;20690;-81
2021/09/24 12:55:35;;;;;;;4.30;2.20;;;;;;;23.17;42.79;99942.06;1088291;54;20049;-83
2021/09/24 12:56:40;;;;;;;8.25;2.30;;;;;;;23.17;42.40;99942.88;1088307;54;20041;-82
2021/09/24 12:57:45;;;;;;;4.43;2.30;;;;;;;23.41;42.13;99951.19;1088319;54;20054;-82
2021/09/24 12:58:47;;;;;;;4.68;2.30;;;;;;;23.48;42.04;99941.00;1088194;54;20030;-81
2021/09/24 12:59:54;;;;;;;5.40;2.35;;;;;;;23.34;41.10;99942.25;1088077;54;20072;-80
2021/09/24 13:00:57;;;;;;;4.97;2.58;;;;;;;23.35;41.10;99935.75;1088060;54;20034;-80
2021/09/24 13:02:10;;;;;;;3.97;2.10;;;;;;;23.53;40.54;99938.41;1088071;54;20019;-80
2021/09/24 13:03:14;;;;;;;5.30;2.63;;;;;;;23.58;40.72;99934.97;1088079;54;20046;-79
2021/09/24 13:04:20;;;;;;;3.83;2.17;;;;;;;23.51;40.62;99934.25;1088275;54;20057;-80
2021/09/24 13:05:24;;;;;;;3.83;2.20;;;;;;;23.43;40.73;99932.69;1088286;54;20035;-82
2021/09/24 13:06:28;;;;;;;4.03;2.50;;;;;;;23.33;41.24;99933.25;1088177;54;20035;-81
2021/09/24 13:37:08;;;;;;;4.25;2.90;;;;;;;23.58;39.76;99909.59;1087411;54;20034;-83
2021/09/24 13:38:10;;;;;;;5.50;2.85;;;;;;;23.77;40.09;99904.88;1091818;39;20665;-82
2021/09/24 13:39:15;;;;;;;5.25;2.88;;;;;;;23.62;40.11;99908.06;1088242;54;20045;-82
2021/09/24 13:40:17;;;;;;;6.20;2.55;;;;;;;23.50;40.36;99906.16;1088136;54;20057;-82
2021/09/24 13:41:21;;;;;;;5.07;2.95;;;;;;;23.55;40.45;99910.06;1088263;54;20059;-83
2021/09/24 13:42:23;;;;;;;5.38;2.90;;;;;;;23.35;40.40;99911.19;1088380;54;20022;-82
2021/09/24 13:44:29;;;;;;;4.28;2.58;;;;;;;23.25;40.29;99906.31;1088340;54;20027;-81
2021/09/24 13:45:30;;;;;;;6.07;2.92;;;;;;;23.48;40.12;99910.16;1088274;54;20046;-83
2021/09/24 13:46:50;;;;;;;5.05;2.90;;;;;;;23.63;39.63;99907.00;1088224;54;20019;-83
2021/09/24 13:47:52;;;;;;;4.50;3.13;;;;;;;23.58;40.26;99898.69;1088326;54;20019;-81
2021/09/24 14:21:55;;;;;;;4.20;2.90;;;;;;;23.32;40.69;99868.06;1087557;54;20039;-81
2021/09/24 14:22:56;;;;;;;4.50;3.05;;;;;;;23.53;40.51;99859.28;1088001;54;20049;-81
2021/09/24 14:24:02;;;;;;;8.60;4.00;;;;;;;23.46;40.55;99861.31;1088012;54;20030;-81
2021/09/24 14:25:04;;;;;;;4.90;3.30;;;;;;;23.69;40.13;99859.69;1088068;54;20022;-82
2021/09/24 14:26:11;;;;;;;5.38;3.63;;;;;;;23.47;40.78;99857.50;1088065;54;20090;-82
2021/09/24 14:27:13;;;;;;;5.40;3.40;;;;;;;23.52;40.51;99859.53;1088134;54;20038;-83
2021/09/24 14:28:23;;;;;;;5.85;3.20;;;;;;;23.37;40.45;99857.25;1087957;54;20065;-82
2021/09/24 14:29:25;;;;;;;4.60;3.20;;;;;;;23.55;40.43;99852.78;1088027;54;20042;-82
2021/09/24 14:30:29;;;;;;;6.57;2.95;;;;;;;23.53;40.54;99864.75;1087984;54;20061;-82
2021/09/24 14:31:32;;;;;;;6.72;2.92;;;;;;;23.50;40.23;99853.47;1088202;54;20046;-82
2021/09/24 14:32:38;;;;;;;6.03;3.20;;;;;;;23.56;39.71;99852.56;1088320;54;20058;-82
2021/09/24 14:45:40;;;;;;;6.63;3.53;;;;;;;23.31;39.92;99850.03;1086450;54;20027;-80
2021/09/24 14:46:42;;;;;;;6.05;3.28;;;;;;;23.59;39.99;99843.06;1086199;54;20031;-80
2021/09/24 14:47:47;;;;;;;5.97;2.85;;;;;;;23.74;39.36;99846.16;1085359;54;20053;-80
2021/09/24 14:48:49;;;;;;;5.22;3.13;;;;;;;23.75;39.38;99845.09;1085614;54;20049;-80
2021/09/24 14:49:53;;;;;;;5.50;3.17;;;;;;;23.45;39.73;99840.53;1086577;54;20030;-82
2021/09/24 14:51:00;;;;;;;9.38;3.97;;;;;;;23.51;39.72;99842.34;1087626;54;20054;-82
2021/09/24 14:52:08;;;;;;;6.45;3.00;;;;;;;23.42;39.45;99829.28;1087909;54;20034;-79
2021/09/24 14:53:12;;;;;;;7.00;3.20;;;;;;;23.38;39.56;99837.09;1087318;54;20058;-80
2021/09/24 14:56:28;;;;;;;7.85;3.50;;;;;;;23.47;39.13;99841.16;1086986;54;20058;-79
2021/09/24 14:57:32;;;;;;;4.32;2.80;;;;;;;23.35;39.42;99846.59;1089636;46;20035;-81
2021/09/24 14:58:36;;;;;;;4.82;2.72;;;;;;;23.33;39.45;99847.91;1087891;54;20038;-79
2021/09/24 14:59:39;;;;;;;5.10;2.90;;;;;;;23.40;39.20;99839.59;1087672;54;20901;-80
2021/09/24 15:00:46;;;;;;;4.65;3.17;;;;;;;23.35;39.30;99843.88;1085527;54;20048;-80
2021/09/24 15:01:48;;;;;;;4.90;2.72;;;;;;;23.39;39.06;99833.31;1086059;54;20042;-80
2021/09/24 15:02:57;;;;;;;5.53;3.25;;;;;;;23.23;38.84;99840.28;1086783;54;20050;-81
2021/09/24 15:04:00;;;;;;;7.45;3.13;;;;;;;23.18;38.99;99837.41;1087433;54;20091;-78
2021/09/24 15:05:13;;;;;;;5.03;2.65;;;;;;;23.35;38.50;99834.84;1088506;54;20025;-81
2021/09/24 15:06:16;;;;;;;5.55;2.88;;;;;;;23.55;38.51;99833.69;1088187;54;20034;-79
2021/09/24 15:07:40;;;;;;;5.30;2.90;;;;;;;23.61;38.28;99833.56;1088495;54;20010;-81
2021/09/24 15:08:41;;;;;;;5.03;2.90;;;;;;;23.57;38.52;99832.38;1090754;46;20038;-80
2021/09/24 15:10:08;;;;;;;4.28;3.08;;;;;;;23.60;38.49;99842.00;1088785;46;20022;-81
2021/09/24 15:11:20;;;;;;;4.47;2.90;;;;;;;23.72;38.49;99828.34;1088352;54;20030;-81
2021/09/24 15:12:24;;;;;;;4.93;2.70;;;;;;;23.85;38.38;99833.59;1089803;46;20090;-80
2021/09/24 15:13:49;;;;;;;6.20;3.03;;;;;;;23.49;38.68;99830.00;1088110;54;20018;-78
2021/09/24 15:14:51;;;;;;;5.45;2.60;;;;;;;23.38;38.39;99837.09;1090799;46;20022;-79
2021/09/24 15:15:59;;;;;;;4.50;2.75;;;;;;;23.55;38.15;99830.94;1088055;54;20017;-81
2021/09/24 15:17:03;;;;;;;4.30;2.95;;;;;;;23.67;37.94;99829.06;1088424;54;20030;-84
2021/09/24 15:18:10;;;;;;;4.60;2.83;;;;;;;23.70;37.53;99833.22;1088056;54;20039;-81
2021/09/24 15:19:12;;;;;;;4.50;2.53;;;;;;;23.76;37.47;99827.66;1087772;54;20041;-81
2021/09/24 15:20:17;;;;;;;4.75;2.50;;;;;;;23.76;37.60;99827.66;1088274;39;20551;-80
2021/09/24 15:21:32;;;;;;;4.82;2.90;;;;;;;23.58;37.61;99828.56;1084428;39;20547;-79
2021/09/24 15:22:42;;;;;;;4.85;2.58;;;;;;;23.63;37.78;99827.88;1083437;54;20600;-79
2021/09/24 15:23:50;;;;;;;4.68;3.08;;;;;;;23.66;37.72;99835.59;1083151;54;20149;-79
2021/09/24 15:25:05;;;;;;;4.97;3.13;;;;;;;23.72;37.45;99826.44;1083369;54;20049;-77
2021/09/24 15:26:07;;;;;;;5.70;2.90;;;;;;;23.56;37.72;99832.63;1083921;54;20050;-78
2021/09/24 15:27:12;;;;;;;4.80;2.80;;;;;;;23.50;37.79;99827.06;1083949;54;20057;-77
2021/09/24 15:28:15;;;;;;;5.50;2.90;;;;;;;23.41;38.15;99825.75;1084711;54;20046;-78
2021/09/24 15:29:19;;;;;;;5.50;2.90;;;;;;;23.67;37.56;99818.16;1084283;54;20034;-79
2021/09/24 15:30:23;;;;;;;4.30;2.70;;;;;;;23.68;37.57;99820.63;1085419;39;20789;-80
2021/09/24 15:31:27;;;;;;;5.45;2.67;;;;;;;23.63;37.42;99825.16;1084802;54;20041;-78
2021/09/24 15:32:32;;;;;;;6.80;2.80;;;;;;;23.60;37.85;99821.00;1084209;54;20042;-79
2021/09/24 15:33:36;;;;;;;4.40;2.83;;;;;;;23.55;38.03;99831.81;1083566;54;20047;-78
2021/09/24 15:34:40;;;;;;;5.75;2.72;;;;;;;23.44;38.04;99817.06;1084097;54;20065;-78
2021/09/24 15:35:43;;;;;;;6.90;2.97;;;;;;;23.23;38.18;99812.19;1084609;54;20077;-79
2021/09/24 15:36:47;;;;;;;5.72;3.50;;;;;;;23.25;38.34;99815.50;1084288;54;20094;-78
2021/09/24 15:37:52;;;;;;;5.18;3.65;;;;;;;23.40;38.11;99813.16;1084268;54;20038;-79
2021/09/24 15:38:53;;;;;;;6.88;3.38;;;;;;;23.50;38.02;99816.13;1084739;54;20041;-78
2021/09/24 15:39:58;;;;;;;4.95;3.13;;;;;;;23.55;37.84;99818.16;1084316;47;20660;-78
2021/09/24 15:41:00;;;;;;;5.07;3.22;;;;;;;23.63;38.08;99809.63;1084315;54;20066;-77
2021/09/24 15:42:07;;;;;;;5.95;3.20;;;;;;;23.49;38.13;99819.09;1084294;54;20065;-78
2021/09/24 15:43:08;;;;;;;5.05;2.97;;;;;;;23.47;38.09;99816.59;1084748;54;20127;-78
2021/09/24 15:44:13;;;;;;;4.30;2.63;;;;;;;23.48;38.05;99823.72;1084307;54;20061;-79
2021/09/24 15:45:16;;;;;;;5.38;2.75;;;;;;;23.48;38.17;99821.00;1084554;54;20069;-78
2021/09/24 15:46:22;;;;;;;4.32;2.53;;;;;;;23.54;38.40;99813.78;1084085;54;20062;-79
2021/09/24 15:47:29;;;;;;;4.32;2.60;;;;;;;23.56;38.31;99817.09;1084761;54;20038;-79
2021/09/24 15:48:30;;;;;;;4.57;3.00;;;;;;;23.41;38.44;99814.84;1084377;54;20038;-80
2021/09/24 15:49:35;;;;;;;5.80;2.88;;;;;;;23.35;38.63;99813.03;1084265;54;20042;-78
2021/09/24 15:50:39;;;;;;;5.90;3.08;;;;;;;23.40;38.51;99813.16;1084291;54;20069;-78
2021/09/24 15:51:47;;;;;;;5.03;3.00;;;;;;;23.29;38.57;99811.25;1084698;54;20034;-79
2021/09/24 15:52:48;;;;;;;4.95;2.65;;;;;;;23.33;38.71;99816.00;1086756;39;20509;-77
2021/09/24 15:53:54;;;;;;;5.38;3.10;;;;;;;23.40;38.72;99813.16;1085891;54;20061;-77
2021/09/24 15:54:57;;;;;;;4.80;2.70;;;;;;;23.49;38.57;99811.75;1085519;54;20049;-81
2021/09/24 15:56:01;;;;;;;6.68;3.22;;;;;;;23.20;39.06;99808.88;1088618;39;20456;-78
2021/09/24 15:57:05;;;;;;;6.63;3.13;;;;;;;23.05;39.08;99820.16;1087042;54;20042;-78
2021/09/24 15:58:09;;;;;;;4.30;2.75;;;;;;;23.01;39.24;99826.31;1087321;46;20058;-78
2021/09/24 15:59:14;;;;;;;4.60;2.90;;;;;;;23.29;38.76;99813.97;1086926;54;20145;-77
2021/09/24 16:00:16;;;;;;;4.38;2.90;;;;;;;23.13;39.55;99810.84;1087420;54;20057;-77
2021/09/24 16:01:20;;;;;;;5.10;2.97;;;;;;;23.16;39.17;99813.06;1087997;54;20030;-79
2021/09/24 16:02:25;;;;;;;5.53;3.05;;;;;;;23.24;38.90;99813.84;1088054;54;20035;-79
2021/09/24 16:03:31;;;;;;;5.97;3.00;;;;;;;23.21;38.83;99809.69;1094140;39;20747;-77
2021/09/24 16:04:35;;;;;;;4.45;2.80;;;;;;;23.13;39.51;99813.56;1086867;54;20054;-77
2021/09/24 16:05:37;;;;;;;5.75;2.85;;;;;;;23.05;39.67;99822.06;1087453;39;20800;-78
2021/09/24 16:06:41;;;;;;;5.13;2.60;;;;;;;23.18;39.36;99813.72;1087144;54;20034;-78
2021/09/24 16:07:46;;;;;;;4.30;2.72;;;;;;;23.28;38.87;99812.31;1087197;54;20035;-78
2021/09/24 16:08:50;;;;;;;5.78;2.72;;;;;;;23.15;38.92;99816.88;1086977;54;20038;-79
2021/09/24 16:09:52;;;;;;;5.95;3.05;;;;;;;23.29;38.97;99813.97;1087061;54;20038;-78
2021/09/24 16:10:56;;;;;;;4.75;2.58;;;;;;;23.29;38.65;99813.97;1087321;54;20796;-78
2021/09/24 16:11:58;;;;;;;4.97;2.88;;;;;;;23.12;39.34;99814.63;1087643;54;20062;-78
2021/09/24 16:13:03;;;;;;;4.65;2.90;;;;;;;23.24;39.13;99820.13;1086123;54;20034;-78
2021/09/24 16:14:09;;;;;;;7.25;3.00;;;;;;;22.99;39.33;99826.56;1086656;54;20042;-81
2021/09/24 16:15:13;;;;;;;3.97;2.58;;;;;;;23.14;39.23;99817.97;1088164;54;20658;-80
2021/09/24 16:20:56;;;;;;;5.03;2.97;;;;;;;23.00;39.98;99820.03;1087828;54;20057;-80
2021/09/24 16:22:00;;;;;;;4.63;2.75;;;;;;;23.09;39.72;99815.09;1087109;54;20042;-78
2021/09/24 16:23:02;;;;;;;4.82;3.00;;;;;;;23.02;40.02;99822.53;1084876;54;20049;-79
2021/09/24 16:24:08;;;;;;;5.40;2.88;;;;;;;22.98;40.24;99819.44;1085902;54;20038;-80
2021/09/24 16:25:13;;;;;;;5.05;3.03;;;;;;;22.75;40.79;99822.94;1088199;46;20109;-78
2021/09/24 16:26:16;;;;;;;6.00;3.40;;;;;;;22.65;41.06;99820.72;1084741;54;20039;-77
2021/09/24 16:27:22;;;;;;;6.45;3.67;;;;;;;22.72;40.83;99828.81;1085079;54;20069;-80
2021/09/24 16:28:26;;;;;;;6.95;3.20;;;;;;;22.67;40.77;99821.34;1083815;54;20051;-77
2021/09/24 16:29:28;;;;;;;4.32;2.80;;;;;;;22.63;40.76;99824.75;1083898;54;20042;-79
2021/09/24 16:30:33;;;;;;;5.55;2.92;;;;;;;22.48;41.39;99823.28;1085048;39;20476;-79
2021/09/24 16:31:35;;;;;;;5.20;3.08;;;;;;;22.63;41.20;99820.13;1085668;54;20121;-79
2021/09/24 16:32:39;;;;;;;5.88;3.45;;;;;;;22.55;41.23;99823.16;1085369;54;20064;-79
2021/09/24 16:33:42;;;;;;;4.55;2.90;;;;;;;22.37;41.51;99818.56;1086040;54;20061;-78
2021/09/24 16:34:46;;;;;;;4.50;2.75;;;;;;;22.38;41.79;99822.94;1085325;54;20042;-79
2021/09/24 16:35:49;;;;;;;5.32;3.58;;;;;;;22.53;41.28;99828.84;1085930;54;20042;-78
2021/09/24 16:36:56;;;;;;;5.15;3.00;;;;;;;22.65;41.24;99825.38;1085979;54;20094;-79
2021/09/24 16:38:00;;;;;;;5.03;2.75;;;;;;;22.67;41.08;99821.34;1085728;39;20508;-79
2021/09/24 16:39:01;;;;;;;5.25;3.25;;;;;;;22.69;40.88;99819.22;1084517;54;20043;-79
2021/09/24 16:40:07;;;;;;;5.50;3.22;;;;;;;22.49;41.31;99827.63;1084609;54;20069;-78
2021/09/24 16:41:11;;;;;;;5.97;2.88;;;;;;;22.32;42.09;99826.56;1084937;54;20044;-79
2021/09/24 16:42:13;;;;;;;6.13;3.03;;;;;;;22.41;42.24;99827.94;1084532;54;20039;-78
2021/09/24 16:43:19;;;;;;;6.13;2.88;;;;;;;22.39;41.97;99821.88;1084297;54;20038;-79
2021/09/24 16:44:38;;;;;;;;;;;;;;;;;;;;;
2021/09/24 16:45:48;;;;;;;4.93;2.90;;;;;;;22.43;42.09;99823.94;1084426;54;20045;-79
2021/09/24 16:46:53;;;;;;;5.10;3.42;;;;;;;22.49;42.03;99830.38;1086637;54;20034;-79
2021/09/24 16:48:09;;;;;;;5.22;3.15;;;;;;;22.50;42.19;99828.50;1087287;54;20038;-79
2021/09/24 16:49:31;;;;;;;4.72;3.00;;;;;;;22.56;41.97;99825.69;1087176;54;20037;-79
2021/09/24 16:50:37;;;;;;;6.38;2.80;;;;;;;22.46;41.95;99825.41;1087635;46;20060;-79
2021/09/24 16:51:44;;;;;;;5.57;2.55;;;;;;;22.30;42.52;99826.81;1083763;54;20088;-80
2021/09/24 16:52:51;;;;;;;6.18;3.22;;;;;;;22.31;42.89;99833.06;1084288;54;20046;-78
2021/09/24 16:53:53;;;;;;;6.47;3.10;;;;;;;22.19;43.12;99827.56;1084649;54;20042;-78
2021/09/24 16:54:57;;;;;;;5.40;3.25;;;;;;;22.33;42.85;99831.81;1084094;54;20521;-79
2021/09/24 16:56:01;;;;;;;5.63;3.42;;;;;;;22.36;42.95;99825.06;1083935;54;20631;-77
2021/09/24 16:57:03;;;;;;;4.38;2.83;;;;;;;22.37;42.92;99832.19;1084499;54;20038;-80
2021/09/24 16:58:07;;;;;;;4.35;2.80;;;;;;;22.28;43.10;99831.63;1083788;54;20061;-77
2021/09/24 16:59:09;;;;;;;5.78;3.35;;;;;;;22.19;43.29;99833.84;1083972;54;20039;-78
2021/09/24 17:00:17;;;;;;;5.78;3.70;;;;;;;22.33;43.29;99831.81;1084247;54;20921;-78
2021/09/24 17:01:18;;;;;;;5.95;3.65;;;;;;;22.35;43.33;99826.13;1086269;39;20531;-78
2021/09/24 17:02:22;;;;;;;7.22;3.42;;;;;;;22.18;43.80;99825.91;1084643;54;20053;-78
2021/09/24 17:03:28;;;;;;;5.82;3.70;;;;;;;22.21;43.54;99833.63;1085413;54;20046;-81
2021/09/24 17:04:29;;;;;;;5.10;3.20;;;;;;;22.16;43.83;99831.56;1086968;54;20042;-80
2021/09/24 17:05:34;;;;;;;6.38;3.38;;;;;;;22.15;43.79;99832.63;1086513;54;20033;-80
2021/09/24 17:06:36;;;;;;;5.50;3.45;;;;;;;22.05;44.27;99829.59;1087013;54;20030;-79
2021/09/24 17:07:41;;;;;;;5.97;3.70;;;;;;;22.03;44.15;99842.59;1086437;54;20038;-80
2021/09/24 17:08:48;;;;;;;7.30;3.22;;;;;;;21.89;44.68;99834.59;1086943;54;20050;-81
2021/09/24 17:09:50;;;;;;;5.10;3.10;;;;;;;21.79;44.79;99831.53;1086343;54;20042;-79
2021/09/24 17:10:54;;;;;;;4.85;3.38;;;;;;;21.83;44.85;99829.19;1086311;54;20937;-81
2021/09/24 17:11:56;;;;;;;4.68;3.20;;;;;;;21.92;44.48;99839.56;1086717;54;20053;-79
2021/09/24 17:13:00;;;;;;;6.72;3.40;;;;;;;21.96;44.71;99827.19;1085168;54;20034;-79
2021/09/24 17:14:03;;;;;;;5.03;3.33;;;;;;;22.01;44.78;99829.22;1084408;54;20042;-77
2021/09/24 17:15:09;;;;;;;6.13;2.97;;;;;;;21.94;44.82;99840.16;1084675;54;20042;-77
2021/09/24 17:16:10;;;;;;;5.93;3.65;;;;;;;21.97;44.90;99833.44;1084141;54;20048;-76
2021/09/24 17:17:14;;;;;;;4.65;3.20;;;;;;;21.99;44.97;99833.22;1084762;54;20039;-78
2021/09/24 17:18:19;;;;;;;6.80;3.28;;;;;;;21.85;44.91;99829.81;1084468;54;20039;-76
2021/09/24 17:19:20;;;;;;;4.70;3.10;;;;;;;21.79;45.27;99831.53;1084318;54;20049;-79
2021/09/24 17:20:29;;;;;;;5.57;3.30;;;;;;;21.73;45.57;99843.28;1083841;54;20064;-77
2021/09/24 17:21:30;;;;;;;5.68;3.30;;;;;;;21.81;45.43;99834.88;1084515;54;20046;-78
2021/09/24 17:22:35;;;;;;;6.70;3.30;;;;;;;21.72;45.64;99836.22;1084584;54;20061;-77
2021/09/24 17:23:39;;;;;;;4.75;3.20;;;;;;;21.79;45.51;99834.25;1084956;47;20026;-78
2021/09/24 17:24:44;;;;;;;6.05;3.60;;;;;;;21.71;46.06;99840.00;1085651;54;20046;-78
2021/09/24 17:25:48;;;;;;;6.03;3.10;;;;;;;21.57;45.74;99840.06;1084894;54;20038;-79
2021/09/24 17:26:53;;;;;;;5.05;3.28;;;;;;;21.58;45.98;99841.75;1083376;54;20072;-77
2021/09/24 17:27:57;;;;;;;5.20;3.55;;;;;;;21.63;45.97;99838.38;1084593;54;20057;-79
2021/09/24 17:28:59;;;;;;;4.60;3.15;;;;;;;21.66;45.98;99838.75;1086203;54;20042;-79
2021/09/24 17:30:04;;;;;;;8.18;3.40;;;;;;;21.46;46.40;99843.50;1086298;54;20061;-78
2021/09/24 17:31:06;;;;;;;4.95;3.20;;;;;;;21.30;47.07;99840.28;1086449;54;20034;-79
2021/09/24 17:32:10;;;;;;;6.35;3.97;;;;;;;21.23;47.23;99842.22;1090653;39;20547;-79
2021/09/24 17:33:16;;;;;;;8.02;3.30;;;;;;;21.10;47.50;99840.44;1085906;54;20038;-78
2021/09/24 17:34:18;;;;;;;6.13;3.60;;;;;;;21.02;47.71;99843.38;1086581;54;20068;-78
2021/09/24 17:35:24;;;;;;;8.00;4.28;;;;;;;21.05;47.38;99848.41;1085742;54;20083;-79
2021/09/24 17:36:25;;;;;;;5.93;3.90;;;;;;;21.06;47.76;99843.81;1085880;54;20038;-78
2021/09/24 17:37:30;;;;;;;5.70;3.72;;;;;;;21.02;47.41;99846.94;1084327;54;20038;-78
2021/09/24 17:38:33;;;;;;;6.93;4.38;;;;;;;20.97;47.67;99846.75;1083631;54;20895;-77
2021/09/24 17:39:37;;;;;;;6.43;3.75;;;;;;;21.10;47.73;99845.88;1083289;54;20045;-78
2021/09/24 17:40:46;;;;;;;6.35;4.13;;;;;;;20.98;47.79;99842.19;1082831;54;20043;-77
2021/09/24 17:41:50;;;;;;;4.90;3.85;;;;;;;21.01;48.07;99841.75;1083033;54;20042;-77
2021/09/24 17:42:55;;;;;;;7.03;4.25;;;;;;;20.96;48.02;99842.41;1083428;54;20046;-79
2021/09/24 17:43:59;;;;;;;7.07;4.35;;;;;;;20.81;48.26;99847.28;1083844;54;20046;-79
2021/09/24 17:45:02;;;;;;;10.60;4.80;;;;;;;20.73;48.99;99851.91;1084415;47;20084;-80
2021/09/24 17:46:06;;;;;;;7.50;4.80;;;;;;;20.78;48.52;99848.56;1084528;54;20034;-79
2021/09/24 17:47:16;;;;;;;7.72;4.32;;;;;;;20.87;48.25;99841.00;1084692;47;20039;-80
2021/09/24 17:48:20;;;;;;;6.13;3.75;;;;;;;20.86;48.55;99850.19;1084418;54;20122;-78
2021/09/24 17:49:22;;;;;;;5.15;3.75;;;;;;;20.88;48.41;99848.91;1084347;54;20073;-79
2021/09/24 17:50:28;;;;;;;6.95;4.05;;;;;;;20.89;48.50;99857.88;1084185;54;20057;-79
2021/09/24 17:51:30;;;;;;;5.97;3.63;;;;;;;20.86;48.64;99845.56;1084804;54;20147;-79
2021/09/24 17:52:34;;;;;;;6.90;4.47;;;;;;;20.96;48.50;99852.44;1084304;54;20137;-79
2021/09/24 17:53:39;;;;;;;6.13;4.32;;;;;;;20.99;48.19;99847.38;1084539;54;20023;-79
2021/09/24 17:54:44;;;;;;;6.63;4.15;;;;;;;20.96;48.10;99853.28;1084483;54;20049;-81
2021/09/24 17:55:48;;;;;;;7.97;4.13;;;;;;;20.85;48.47;99849.34;1084279;54;20039;-79
2021/09/24 17:56:52;;;;;;;7.32;4.13;;;;;;;20.77;48.97;99851.50;1084775;47;20035;-79
2021/09/24 17:57:58;;;;;;;6.38;3.80;;;;;;;20.79;48.80;99850.22;1084280;54;20045;-78
2021/09/24 17:59:03;;;;;;;6.50;3.88;;;;;;;20.78;48.96;99847.72;1084262;54;20061;-80
2021/09/24 18:00:07;;;;;;;4.90;3.28;;;;;;;20.81;48.75;99855.44;1084578;54;20046;-78
2021/09/24 18:01:13;;;;;;;6.32;3.88;;;;;;;20.78;49.07;99850.44;1084558;47;20058;-79
2021/09/24 18:02:15;;;;;;;6.18;3.65;;;;;;;20.84;48.52;99849.56;1084180;54;20575;-78
2021/09/24 18:03:20;;;;;;;6.40;3.70;;;;;;;20.91;48.41;99853.06;1084064;54;20042;-79
2021/09/24 18:04:21;;;;;;;4.80;3.17;;;;;;;20.98;48.60;99853.03;1084021;54;20031;-80